sensor_id;sensor_type;location;lat;lon;timestamp;temperature;humidity
7214;DHT22;3648;50.614;13.830;2024-03-22T00:02:08;8.80;1.00
7214;DHT22;3648;50.614;13.830;2024-03-22T00:04:35;8.90;1.00
7214;DHT22;3648;50.614;13.830;2024-03-22T00:07:01;8.90;1.00
7214;DHT22;3648;50.614;13.830;2024-03-22T00:09:31;8.80;1.00
7214;DHT22;3648;50.614;13.830;2024-03-22T00:11:57;8.90;1.00
7214;DHT22;3648;50.614;13.830;2024-03-22T00:14:24;8.80;1.00
7214;DHT22;3648;50.614;13.830;2024-03-22T00:16:50;8.80;1.00
7214;DHT22;3648;50.614;13.830;2024-03-22T00:19:17;8.80;1.00
7214;DHT22;3648;50.614;13.830;2024-03-22T00:21:43;8.80;1.00
7214;DHT22;3648;50.614;13.830;2024-03-22T00:24:10;8.80;1.00
7214;DHT22;3648;50.614;13.830;2024-03-22T00:26:37;8.70;1.00
7214;DHT22;3648;50.614;13.830;2024-03-22T00:29:04;8.70;1.00
7214;DHT22;3648;50.614;13.830;2024-03-22T00:31:31;8.70;1.00
7214;DHT22;3648;50.614;13.830;2024-03-22T00:33:58;8.70;1.00
7214;DHT22;3648;50.614;13.830;2024-03-22T00:36:23;8.70;1.00
7214;DHT22;3648;50.614;13.830;2024-03-22T00:38:50;8.70;1.00
7214;DHT22;3648;50.614;13.830;2024-03-22T00:41:16;8.70;1.00
7214;DHT22;3648;50.614;13.830;2024-03-22T00:43:45;8.70;1.00
7214;DHT22;3648;50.614;13.830;2024-03-22T00:46:10;8.80;1.00
7214;DHT22;3648;50.614;13.830;2024-03-22T00:48:37;8.80;1.00
7214;DHT22;3648;50.614;13.830;2024-03-22T00:51:04;8.80;1.00
7214;DHT22;3648;50.614;13.830;2024-03-22T00:53:31;8.80;1.00
7214;DHT22;3648;50.614;13.830;2024-03-22T00:55:57;8.70;1.00
7214;DHT22;3648;50.614;13.830;2024-03-22T00:58:26;8.70;1.00
7214;DHT22;3648;50.614;13.830;2024-03-22T01:00:53;8.70;1.00
7214;DHT22;3648;50.614;13.830;2024-03-22T01:03:20;8.70;1.00
7214;DHT22;3648;50.614;13.830;2024-03-22T01:05:46;8.70;1.00
7214;DHT22;3648;50.614;13.830;2024-03-22T01:08:13;8.70;1.00
7214;DHT22;3648;50.614;13.830;2024-03-22T01:10:40;8.70;1.00
7214;DHT22;3648;50.614;13.830;2024-03-22T01:13:07;8.70;1.00
7214;DHT22;3648;50.614;13.830;2024-03-22T01:15:33;8.70;1.00
7214;DHT22;3648;50.614;13.830;2024-03-22T01:18:02;8.80;1.00
7214;DHT22;3648;50.614;13.830;2024-03-22T01:20:28;8.80;1.00
7214;DHT22;3648;50.614;13.830;2024-03-22T01:22:55;8.80;1.00
7214;DHT22;3648;50.614;13.830;2024-03-22T01:25:21;8.80;1.00
7214;DHT22;3648;50.614;13.830;2024-03-22T01:27:48;8.80;1.00
7214;DHT22;3648;50.614;13.830;2024-03-22T01:30:15;8.80;1.00
7214;DHT22;3648;50.614;13.830;2024-03-22T01:32:41;8.70;1.00
7214;DHT22;3648;50.614;13.830;2024-03-22T01:35:09;8.60;1.00
7214;DHT22;3648;50.614;13.830;2024-03-22T01:37:35;8.70;1.00
7214;DHT22;3648;50.614;13.830;2024-03-22T01:40:03;8.60;1.00
7214;DHT22;3648;50.614;13.830;2024-03-22T01:42:30;8.60;1.00
7214;DHT22;3648;50.614;13.830;2024-03-22T01:44:57;8.60;1.00
7214;DHT22;3648;50.614;13.830;2024-03-22T01:47:23;8.50;1.00
7214;DHT22;3648;50.614;13.830;2024-03-22T01:49:51;8.40;1.00
7214;DHT22;3648;50.614;13.830;2024-03-22T01:52:20;8.40;1.00
7214;DHT22;3648;50.614;13.830;2024-03-22T01:54:48;8.40;1.00
7214;DHT22;3648;50.614;13.830;2024-03-22T01:57:14;8.40;1.00
7214;DHT22;3648;50.614;13.830;2024-03-22T01:59:41;8.40;1.00
7214;DHT22;3648;50.614;13.830;2024-03-22T02:02:07;8.30;1.00
7214;DHT22;3648;50.614;13.830;2024-03-22T02:04:36;8.30;1.00
7214;DHT22;3648;50.614;13.830;2024-03-22T02:07:02;8.30;1.00
7214;DHT22;3648;50.614;13.830;2024-03-22T02:09:31;8.20;1.00
7214;DHT22;3648;50.614;13.830;2024-03-22T02:11:57;8.20;1.00
7214;DHT22;3648;50.614;13.830;2024-03-22T02:14:24;8.20;1.00
7214;DHT22;3648;50.614;13.830;2024-03-22T02:16:51;8.10;1.00
7214;DHT22;3648;50.614;13.830;2024-03-22T02:19:17;8.00;1.00
7214;DHT22;3648;50.614;13.830;2024-03-22T02:21:43;7.90;1.00
7214;DHT22;3648;50.614;13.830;2024-03-22T02:24:12;7.80;1.00
7214;DHT22;3648;50.614;13.830;2024-03-22T02:26:38;7.80;1.00
7214;DHT22;3648;50.614;13.830;2024-03-22T02:29:05;7.80;1.00
7214;DHT22;3648;50.614;13.830;2024-03-22T02:31:31;7.70;1.00
7214;DHT22;3648;50.614;13.830;2024-03-22T02:33:58;7.60;1.00
7214;DHT22;3648;50.614;13.830;2024-03-22T02:36:24;7.60;1.00
7214;DHT22;3648;50.614;13.830;2024-03-22T02:38:51;7.60;1.00
7214;DHT22;3648;50.614;13.830;2024-03-22T02:41:18;7.60;1.00
7214;DHT22;3648;50.614;13.830;2024-03-22T02:43:45;7.60;1.00
7214;DHT22;3648;50.614;13.830;2024-03-22T02:46:11;7.60;1.00
7214;DHT22;3648;50.614;13.830;2024-03-22T02:48:38;7.60;1.00
7214;DHT22;3648;50.614;13.830;2024-03-22T02:51:04;7.60;1.00
7214;DHT22;3648;50.614;13.830;2024-03-22T02:53:31;7.60;1.00
7214;DHT22;3648;50.614;13.830;2024-03-22T02:55:59;7.60;1.00
7214;DHT22;3648;50.614;13.830;2024-03-22T02:58:28;7.60;1.00
7214;DHT22;3648;50.614;13.830;2024-03-22T03:00:54;7.60;1.00
7214;DHT22;3648;50.614;13.830;2024-03-22T03:03:21;7.60;1.00
7214;DHT22;3648;50.614;13.830;2024-03-22T03:05:47;7.70;1.00
7214;DHT22;3648;50.614;13.830;2024-03-22T03:08:14;7.70;1.00
7214;DHT22;3648;50.614;13.830;2024-03-22T03:10:40;7.70;1.00
7214;DHT22;3648;50.614;13.830;2024-03-22T03:13:07;7.70;1.00
7214;DHT22;3648;50.614;13.830;2024-03-22T03:15:34;7.70;1.00
7214;DHT22;3648;50.614;13.830;2024-03-22T03:18:01;7.70;1.00
7214;DHT22;3648;50.614;13.830;2024-03-22T03:20:27;7.70;1.00
7214;DHT22;3648;50.614;13.830;2024-03-22T03:22:54;7.70;1.00
7214;DHT22;3648;50.614;13.830;2024-03-22T03:25:21;7.70;1.00
7214;DHT22;3648;50.614;13.830;2024-03-22T03:27:48;7.70;1.00
7214;DHT22;3648;50.614;13.830;2024-03-22T03:30:14;7.70;1.00
7214;DHT22;3648;50.614;13.830;2024-03-22T03:32:42;7.60;1.00
7214;DHT22;3648;50.614;13.830;2024-03-22T03:35:09;7.60;1.00
7214;DHT22;3648;50.614;13.830;2024-03-22T03:37:35;7.60;1.00
7214;DHT22;3648;50.614;13.830;2024-03-22T03:40:02;7.60;1.00
7214;DHT22;3648;50.614;13.830;2024-03-22T03:42:30;7.70;1.00
7214;DHT22;3648;50.614;13.830;2024-03-22T03:44:56;7.60;1.00
7214;DHT22;3648;50.614;13.830;2024-03-22T03:47:22;7.60;1.00
7214;DHT22;3648;50.614;13.830;2024-03-22T03:49:51;7.60;1.00
7214;DHT22;3648;50.614;13.830;2024-03-22T03:52:18;7.60;1.00
7214;DHT22;3648;50.614;13.830;2024-03-22T03:54:44;7.60;1.00
7214;DHT22;3648;50.614;13.830;2024-03-22T03:57:10;7.60;1.00
7214;DHT22;3648;50.614;13.830;2024-03-22T03:59:37;7.60;1.00
7214;DHT22;3648;50.614;13.830;2024-03-22T04:02:03;7.60;1.00
7214;DHT22;3648;50.614;13.830;2024-03-22T04:04:30;7.60;1.00
7214;DHT22;3648;50.614;13.830;2024-03-22T04:06:58;7.50;1.00
7214;DHT22;3648;50.614;13.830;2024-03-22T04:09:24;7.50;1.00
7214;DHT22;3648;50.614;13.830;2024-03-22T04:11:50;7.50;1.00
7214;DHT22;3648;50.614;13.830;2024-03-22T04:14:17;7.40;1.00
7214;DHT22;3648;50.614;13.830;2024-03-22T04:16:43;7.40;1.00
7214;DHT22;3648;50.614;13.830;2024-03-22T04:19:10;7.40;1.00
7214;DHT22;3648;50.614;13.830;2024-03-22T04:21:36;7.40;1.00
7214;DHT22;3648;50.614;13.830;2024-03-22T04:24:05;7.30;1.00
7214;DHT22;3648;50.614;13.830;2024-03-22T04:26:31;7.40;1.00
7214;DHT22;3648;50.614;13.830;2024-03-22T04:28:58;7.30;1.00
7214;DHT22;3648;50.614;13.830;2024-03-22T04:31:24;7.30;1.00
7214;DHT22;3648;50.614;13.830;2024-03-22T04:33:51;7.30;1.00
7214;DHT22;3648;50.614;13.830;2024-03-22T04:36:17;7.30;1.00
7214;DHT22;3648;50.614;13.830;2024-03-22T04:38:44;7.20;1.00
7214;DHT22;3648;50.614;13.830;2024-03-22T04:41:13;7.20;1.00
7214;DHT22;3648;50.614;13.830;2024-03-22T04:43:40;7.20;1.00
7214;DHT22;3648;50.614;13.830;2024-03-22T04:46:07;7.20;1.00
7214;DHT22;3648;50.614;13.830;2024-03-22T04:48:33;7.10;1.00
7214;DHT22;3648;50.614;13.830;2024-03-22T04:51:00;7.10;1.00
7214;DHT22;3648;50.614;13.830;2024-03-22T04:53:26;7.00;1.00
7214;DHT22;3648;50.614;13.830;2024-03-22T04:55:53;7.00;1.00
7214;DHT22;3648;50.614;13.830;2024-03-22T04:58:21;7.00;1.00
7214;DHT22;3648;50.614;13.830;2024-03-22T05:00:49;7.00;1.00
7214;DHT22;3648;50.614;13.830;2024-03-22T05:03:15;7.00;1.00
7214;DHT22;3648;50.614;13.830;2024-03-22T05:05:43;7.00;1.00
7214;DHT22;3648;50.614;13.830;2024-03-22T05:08:09;7.00;1.00
7214;DHT22;3648;50.614;13.830;2024-03-22T05:10:36;7.00;1.00
7214;DHT22;3648;50.614;13.830;2024-03-22T05:13:02;7.10;1.00
7214;DHT22;3648;50.614;13.830;2024-03-22T05:15:30;7.10;1.00
7214;DHT22;3648;50.614;13.830;2024-03-22T05:17:57;7.00;1.00
7214;DHT22;3648;50.614;13.830;2024-03-22T05:20:25;7.00;1.00
7214;DHT22;3648;50.614;13.830;2024-03-22T05:22:51;7.00;1.00
7214;DHT22;3648;50.614;13.830;2024-03-22T05:25:19;7.00;1.00
7214;DHT22;3648;50.614;13.830;2024-03-22T05:27:45;7.00;1.00
7214;DHT22;3648;50.614;13.830;2024-03-22T05:30:13;7.00;1.00
7214;DHT22;3648;50.614;13.830;2024-03-22T05:32:41;7.00;1.00
7214;DHT22;3648;50.614;13.830;2024-03-22T05:35:08;7.00;1.00
7214;DHT22;3648;50.614;13.830;2024-03-22T05:37:34;7.00;1.00
7214;DHT22;3648;50.614;13.830;2024-03-22T05:40:02;7.00;1.00
7214;DHT22;3648;50.614;13.830;2024-03-22T05:42:29;6.90;1.00
7214;DHT22;3648;50.614;13.830;2024-03-22T05:44:57;6.90;1.00
7214;DHT22;3648;50.614;13.830;2024-03-22T05:47:23;6.90;1.00
7214;DHT22;3648;50.614;13.830;2024-03-22T05:49:51;6.90;1.00
7214;DHT22;3648;50.614;13.830;2024-03-22T05:52:18;6.90;1.00
7214;DHT22;3648;50.614;13.830;2024-03-22T05:54:45;6.90;1.00
7214;DHT22;3648;50.614;13.830;2024-03-22T05:57:11;6.90;1.00
7214;DHT22;3648;50.614;13.830;2024-03-22T05:59:38;6.80;1.00
7214;DHT22;3648;50.614;13.830;2024-03-22T06:02:05;6.80;1.00
7214;DHT22;3648;50.614;13.830;2024-03-22T06:04:32;6.80;1.00
7214;DHT22;3648;50.614;13.830;2024-03-22T06:06:59;6.80;1.00
7214;DHT22;3648;50.614;13.830;2024-03-22T06:09:29;6.90;1.00
7214;DHT22;3648;50.614;13.830;2024-03-22T06:12:03;7.00;1.00
7214;DHT22;3648;50.614;13.830;2024-03-22T06:14:30;7.10;1.00
7214;DHT22;3648;50.614;13.830;2024-03-22T06:16:56;7.20;1.00
7214;DHT22;3648;50.614;13.830;2024-03-22T06:19:23;7.20;1.00
7214;DHT22;3648;50.614;13.830;2024-03-22T06:21:49;7.20;1.00
7214;DHT22;3648;50.614;13.830;2024-03-22T06:24:18;7.30;1.00
7214;DHT22;3648;50.614;13.830;2024-03-22T06:26:44;7.40;1.00
7214;DHT22;3648;50.614;13.830;2024-03-22T06:29:11;7.40;1.00
7214;DHT22;3648;50.614;13.830;2024-03-22T06:31:38;7.50;1.00
7214;DHT22;3648;50.614;13.830;2024-03-22T06:34:05;7.60;1.00
7214;DHT22;3648;50.614;13.830;2024-03-22T06:36:31;7.80;1.00
7214;DHT22;3648;50.614;13.830;2024-03-22T06:38:59;7.60;1.00
7214;DHT22;3648;50.614;13.830;2024-03-22T06:41:27;7.80;1.00
7214;DHT22;3648;50.614;13.830;2024-03-22T06:43:54;7.80;1.00
7214;DHT22;3648;50.614;13.830;2024-03-22T06:46:20;7.90;1.00
7214;DHT22;3648;50.614;13.830;2024-03-22T06:48:48;7.90;1.00
7214;DHT22;3648;50.614;13.830;2024-03-22T06:51:14;8.10;1.00
7214;DHT22;3648;50.614;13.830;2024-03-22T06:53:41;8.10;1.00
7214;DHT22;3648;50.614;13.830;2024-03-22T06:56:07;8.20;1.00
7214;DHT22;3648;50.614;13.830;2024-03-22T06:58:38;8.10;1.00
7214;DHT22;3648;50.614;13.830;2024-03-22T07:01:04;8.20;1.00
7214;DHT22;3648;50.614;13.830;2024-03-22T07:03:31;8.30;1.00
7214;DHT22;3648;50.614;13.830;2024-03-22T07:05:57;8.40;1.00
7214;DHT22;3648;50.614;13.830;2024-03-22T07:08:25;8.40;1.00
7214;DHT22;3648;50.614;13.830;2024-03-22T07:10:51;8.50;1.00
7214;DHT22;3648;50.614;13.830;2024-03-22T07:13:18;8.60;1.00
7214;DHT22;3648;50.614;13.830;2024-03-22T07:15:46;8.70;1.00
7214;DHT22;3648;50.614;13.830;2024-03-22T07:18:13;8.80;1.00
7214;DHT22;3648;50.614;13.830;2024-03-22T07:20:39;8.80;1.00
7214;DHT22;3648;50.614;13.830;2024-03-22T07:23:06;8.90;1.00
7214;DHT22;3648;50.614;13.830;2024-03-22T07:25:32;8.80;1.00
7214;DHT22;3648;50.614;13.830;2024-03-22T07:28:02;8.90;1.00
7214;DHT22;3648;50.614;13.830;2024-03-22T07:30:29;8.90;1.00
7214;DHT22;3648;50.614;13.830;2024-03-22T07:32:58;9.10;1.00
7214;DHT22;3648;50.614;13.830;2024-03-22T07:35:24;9.00;1.00
7214;DHT22;3648;50.614;13.830;2024-03-22T07:37:51;9.00;1.00
7214;DHT22;3648;50.614;13.830;2024-03-22T07:40:17;9.10;1.00
7214;DHT22;3648;50.614;13.830;2024-03-22T07:42:45;8.90;1.00
7214;DHT22;3648;50.614;13.830;2024-03-22T07:45:11;9.00;1.00
7214;DHT22;3648;50.614;13.830;2024-03-22T07:47:39;9.10;1.00
7214;DHT22;3648;50.614;13.830;2024-03-22T07:50:09;9.00;1.00
7214;DHT22;3648;50.614;13.830;2024-03-22T07:52:36;9.20;1.00
7214;DHT22;3648;50.614;13.830;2024-03-22T07:55:03;9.40;1.00
7214;DHT22;3648;50.614;13.830;2024-03-22T07:57:30;9.40;1.00
7214;DHT22;3648;50.614;13.830;2024-03-22T07:59:56;9.60;1.00
7214;DHT22;3648;50.614;13.830;2024-03-22T08:02:23;9.50;1.00
7214;DHT22;3648;50.614;13.830;2024-03-22T08:04:49;9.60;1.00
7214;DHT22;3648;50.614;13.830;2024-03-22T08:07:18;9.80;1.00
7214;DHT22;3648;50.614;13.830;2024-03-22T08:09:47;9.90;1.00
7214;DHT22;3648;50.614;13.830;2024-03-22T08:12:14;10.00;1.00
7214;DHT22;3648;50.614;13.830;2024-03-22T08:14:40;10.10;1.00
7214;DHT22;3648;50.614;13.830;2024-03-22T08:17:07;9.90;1.00
7214;DHT22;3648;50.614;13.830;2024-03-22T08:19:34;10.10;1.00
7214;DHT22;3648;50.614;13.830;2024-03-22T08:22:01;10.20;1.00
7214;DHT22;3648;50.614;13.830;2024-03-22T08:24:29;10.00;1.00
7214;DHT22;3648;50.614;13.830;2024-03-22T08:26:55;9.90;1.00
7214;DHT22;3648;50.614;13.830;2024-03-22T08:29:21;10.10;1.00
7214;DHT22;3648;50.614;13.830;2024-03-22T08:31:49;10.10;1.00
7214;DHT22;3648;50.614;13.830;2024-03-22T08:34:16;10.10;1.00
7214;DHT22;3648;50.614;13.830;2024-03-22T08:36:43;10.30;1.00
7214;DHT22;3648;50.614;13.830;2024-03-22T08:39:09;10.40;1.00
7214;DHT22;3648;50.614;13.830;2024-03-22T08:41:38;10.30;1.00
7214;DHT22;3648;50.614;13.830;2024-03-22T08:44:04;10.50;1.00
7214;DHT22;3648;50.614;13.830;2024-03-22T08:46:32;10.60;1.00
7214;DHT22;3648;50.614;13.830;2024-03-22T08:49:05;10.60;1.00
7214;DHT22;3648;50.614;13.830;2024-03-22T08:51:35;10.60;1.00
7214;DHT22;3648;50.614;13.830;2024-03-22T08:54:02;10.70;1.00
7214;DHT22;3648;50.614;13.830;2024-03-22T08:56:29;10.80;1.00
7214;DHT22;3648;50.614;13.830;2024-03-22T08:58:57;10.80;1.00
7214;DHT22;3648;50.614;13.830;2024-03-22T09:01:24;10.70;1.00
7214;DHT22;3648;50.614;13.830;2024-03-22T09:03:52;11.00;1.00
7214;DHT22;3648;50.614;13.830;2024-03-22T09:06:20;11.00;1.00
7214;DHT22;3648;50.614;13.830;2024-03-22T09:08:49;10.90;1.00
7214;DHT22;3648;50.614;13.830;2024-03-22T09:11:16;11.00;1.00
7214;DHT22;3648;50.614;13.830;2024-03-22T09:13:43;11.00;1.00
7214;DHT22;3648;50.614;13.830;2024-03-22T09:16:16;11.00;1.00
7214;DHT22;3648;50.614;13.830;2024-03-22T09:18:42;10.90;1.00
7214;DHT22;3648;50.614;13.830;2024-03-22T09:21:12;11.00;1.00
7214;DHT22;3648;50.614;13.830;2024-03-22T09:23:39;11.10;1.00
7214;DHT22;3648;50.614;13.830;2024-03-22T09:26:06;11.30;1.00
7214;DHT22;3648;50.614;13.830;2024-03-22T09:28:32;11.50;1.00
7214;DHT22;3648;50.614;13.830;2024-03-22T09:31:03;11.70;1.00
7214;DHT22;3648;50.614;13.830;2024-03-22T09:33:31;11.60;1.00
7214;DHT22;3648;50.614;13.830;2024-03-22T09:36:01;11.80;1.00
7214;DHT22;3648;50.614;13.830;2024-03-22T09:38:28;11.90;1.00
7214;DHT22;3648;50.614;13.830;2024-03-22T09:40:56;11.80;1.00
7214;DHT22;3648;50.614;13.830;2024-03-22T09:43:22;11.90;1.00
7214;DHT22;3648;50.614;13.830;2024-03-22T09:45:50;12.10;1.00
7214;DHT22;3648;50.614;13.830;2024-03-22T09:48:18;12.00;1.00
7214;DHT22;3648;50.614;13.830;2024-03-22T09:50:47;12.10;1.00
7214;DHT22;3648;50.614;13.830;2024-03-22T09:53:14;11.90;1.00
7214;DHT22;3648;50.614;13.830;2024-03-22T09:55:41;12.00;1.00
7214;DHT22;3648;50.614;13.830;2024-03-22T09:58:10;12.00;1.00
7214;DHT22;3648;50.614;13.830;2024-03-22T10:00:37;12.00;1.00
7214;DHT22;3648;50.614;13.830;2024-03-22T10:03:04;11.90;1.00
7214;DHT22;3648;50.614;13.830;2024-03-22T10:05:32;12.00;1.00
7214;DHT22;3648;50.614;13.830;2024-03-22T10:07:59;12.20;1.00
7214;DHT22;3648;50.614;13.830;2024-03-22T10:10:27;12.10;1.00
7214;DHT22;3648;50.614;13.830;2024-03-22T10:12:53;12.00;1.00
7214;DHT22;3648;50.614;13.830;2024-03-22T10:15:20;12.00;1.00
7214;DHT22;3648;50.614;13.830;2024-03-22T10:17:49;12.10;1.00
7214;DHT22;3648;50.614;13.830;2024-03-22T10:20:16;12.20;1.00
7214;DHT22;3648;50.614;13.830;2024-03-22T10:22:42;12.20;1.00
7214;DHT22;3648;50.614;13.830;2024-03-22T10:25:12;12.30;1.00
7214;DHT22;3648;50.614;13.830;2024-03-22T10:27:39;12.50;1.00
7214;DHT22;3648;50.614;13.830;2024-03-22T10:30:09;12.70;1.00
7214;DHT22;3648;50.614;13.830;2024-03-22T10:32:37;12.90;1.00
7214;DHT22;3648;50.614;13.830;2024-03-22T10:35:06;13.00;1.00
7214;DHT22;3648;50.614;13.830;2024-03-22T10:37:33;13.20;1.00
7214;DHT22;3648;50.614;13.830;2024-03-22T10:40:01;13.30;1.00
7214;DHT22;3648;50.614;13.830;2024-03-22T10:42:34;13.20;1.00
7214;DHT22;3648;50.614;13.830;2024-03-22T10:45:02;13.30;1.00
7214;DHT22;3648;50.614;13.830;2024-03-22T10:47:30;13.60;1.00
7214;DHT22;3648;50.614;13.830;2024-03-22T10:50:03;13.80;1.00
7214;DHT22;3648;50.614;13.830;2024-03-22T10:52:32;14.10;1.00
7214;DHT22;3648;50.614;13.830;2024-03-22T10:55:00;14.20;1.00
7214;DHT22;3648;50.614;13.830;2024-03-22T10:57:27;14.40;1.00
7214;DHT22;3648;50.614;13.830;2024-03-22T10:59:57;14.30;1.00
7214;DHT22;3648;50.614;13.830;2024-03-22T11:02:23;14.50;1.00
7214;DHT22;3648;50.614;13.830;2024-03-22T11:04:56;14.80;1.00
7214;DHT22;3648;50.614;13.830;2024-03-22T11:07:22;14.90;1.00
7214;DHT22;3648;50.614;13.830;2024-03-22T11:09:56;15.10;1.00
7214;DHT22;3648;50.614;13.830;2024-03-22T11:12:24;15.40;1.00
7214;DHT22;3648;50.614;13.830;2024-03-22T11:14:52;15.40;1.00
7214;DHT22;3648;50.614;13.830;2024-03-22T11:17:20;15.50;1.00
7214;DHT22;3648;50.614;13.830;2024-03-22T11:19:50;15.60;1.00
7214;DHT22;3648;50.614;13.830;2024-03-22T11:22:16;15.70;1.00
7214;DHT22;3648;50.614;13.830;2024-03-22T11:24:43;15.90;1.00
7214;DHT22;3648;50.614;13.830;2024-03-22T11:27:09;15.50;1.00
7214;DHT22;3648;50.614;13.830;2024-03-22T11:29:37;15.90;1.00
7214;DHT22;3648;50.614;13.830;2024-03-22T11:32:06;16.10;1.00
7214;DHT22;3648;50.614;13.830;2024-03-22T11:34:37;16.30;1.00
7214;DHT22;3648;50.614;13.830;2024-03-22T11:37:04;16.10;1.00
7214;DHT22;3648;50.614;13.830;2024-03-22T11:39:32;16.20;1.00
7214;DHT22;3648;50.614;13.830;2024-03-22T11:42:00;16.40;1.00
7214;DHT22;3648;50.614;13.830;2024-03-22T11:44:28;16.50;1.00
7214;DHT22;3648;50.614;13.830;2024-03-22T11:46:54;16.70;1.00
7214;DHT22;3648;50.614;13.830;2024-03-22T11:49:21;16.70;1.00
7214;DHT22;3648;50.614;13.830;2024-03-22T11:51:51;16.50;1.00
7214;DHT22;3648;50.614;13.830;2024-03-22T11:54:19;16.50;1.00
7214;DHT22;3648;50.614;13.830;2024-03-22T11:56:45;16.80;1.00
7214;DHT22;3648;50.614;13.830;2024-03-22T11:59:12;16.60;1.00
7214;DHT22;3648;50.614;13.830;2024-03-22T12:01:38;16.60;1.00
7214;DHT22;3648;50.614;13.830;2024-03-22T12:04:07;16.50;1.00
7214;DHT22;3648;50.614;13.830;2024-03-22T12:06:34;16.70;1.00
7214;DHT22;3648;50.614;13.830;2024-03-22T12:09:03;16.80;1.00
7214;DHT22;3648;50.614;13.830;2024-03-22T12:11:29;16.90;1.00
7214;DHT22;3648;50.614;13.830;2024-03-22T12:13:56;16.60;1.00
7214;DHT22;3648;50.614;13.830;2024-03-22T12:16:22;16.30;1.00
7214;DHT22;3648;50.614;13.830;2024-03-22T12:18:49;16.40;1.00
7214;DHT22;3648;50.614;13.830;2024-03-22T12:21:15;16.20;1.00
7214;DHT22;3648;50.614;13.830;2024-03-22T12:23:42;16.20;1.00
7214;DHT22;3648;50.614;13.830;2024-03-22T12:26:09;16.00;1.00
7214;DHT22;3648;50.614;13.830;2024-03-22T12:28:36;16.10;1.00
7214;DHT22;3648;50.614;13.830;2024-03-22T12:31:04;16.10;1.00
7214;DHT22;3648;50.614;13.830;2024-03-22T12:33:31;16.00;1.00
7214;DHT22;3648;50.614;13.830;2024-03-22T12:35:57;16.30;1.00
7214;DHT22;3648;50.614;13.830;2024-03-22T12:38:24;16.50;1.00
7214;DHT22;3648;50.614;13.830;2024-03-22T12:40:50;16.50;1.00
7214;DHT22;3648;50.614;13.830;2024-03-22T12:43:18;16.50;1.00
7214;DHT22;3648;50.614;13.830;2024-03-22T12:45:44;16.60;1.00
7214;DHT22;3648;50.614;13.830;2024-03-22T12:48:11;16.80;1.00
7214;DHT22;3648;50.614;13.830;2024-03-22T12:50:37;16.90;1.00
7214;DHT22;3648;50.614;13.830;2024-03-22T12:53:04;17.10;1.00
7214;DHT22;3648;50.614;13.830;2024-03-22T12:55:30;17.10;1.00
7214;DHT22;3648;50.614;13.830;2024-03-22T12:57:58;17.10;1.00
7214;DHT22;3648;50.614;13.830;2024-03-22T13:00:26;17.00;1.00
7214;DHT22;3648;50.614;13.830;2024-03-22T13:02:54;16.90;1.00
7214;DHT22;3648;50.614;13.830;2024-03-22T13:05:20;16.80;1.00
7214;DHT22;3648;50.614;13.830;2024-03-22T13:07:47;16.90;1.00
7214;DHT22;3648;50.614;13.830;2024-03-22T13:10:13;17.10;1.00
7214;DHT22;3648;50.614;13.830;2024-03-22T13:12:40;17.00;1.00
7214;DHT22;3648;50.614;13.830;2024-03-22T13:15:07;17.00;1.00
7214;DHT22;3648;50.614;13.830;2024-03-22T13:17:36;17.20;1.00
7214;DHT22;3648;50.614;13.830;2024-03-22T13:20:03;17.30;1.00
7214;DHT22;3648;50.614;13.830;2024-03-22T13:22:36;17.40;1.00
7214;DHT22;3648;50.614;13.830;2024-03-22T13:25:02;17.50;1.00
7214;DHT22;3648;50.614;13.830;2024-03-22T13:27:32;17.50;1.00
7214;DHT22;3648;50.614;13.830;2024-03-22T13:29:58;17.50;1.00
7214;DHT22;3648;50.614;13.830;2024-03-22T13:32:25;17.50;1.00
7214;DHT22;3648;50.614;13.830;2024-03-22T13:34:53;17.40;1.00
7214;DHT22;3648;50.614;13.830;2024-03-22T13:37:19;17.40;1.00
7214;DHT22;3648;50.614;13.830;2024-03-22T13:39:48;17.30;1.00
7214;DHT22;3648;50.614;13.830;2024-03-22T13:42:15;17.30;1.00
7214;DHT22;3648;50.614;13.830;2024-03-22T13:44:42;17.20;1.00
7214;DHT22;3648;50.614;13.830;2024-03-22T13:47:09;17.20;1.00
7214;DHT22;3648;50.614;13.830;2024-03-22T13:49:35;17.20;1.00
7214;DHT22;3648;50.614;13.830;2024-03-22T13:52:05;17.20;1.00
7214;DHT22;3648;50.614;13.830;2024-03-22T13:54:31;17.20;1.00
7214;DHT22;3648;50.614;13.830;2024-03-22T13:56:58;17.20;1.00
7214;DHT22;3648;50.614;13.830;2024-03-22T13:59:25;17.30;1.00
7214;DHT22;3648;50.614;13.830;2024-03-22T14:01:52;17.20;1.00
7214;DHT22;3648;50.614;13.830;2024-03-22T14:04:18;17.20;1.00
7214;DHT22;3648;50.614;13.830;2024-03-22T14:06:45;17.20;1.00
7214;DHT22;3648;50.614;13.830;2024-03-22T14:09:13;17.20;1.00
7214;DHT22;3648;50.614;13.830;2024-03-22T14:11:41;17.20;1.00
7214;DHT22;3648;50.614;13.830;2024-03-22T14:14:08;17.30;1.00
7214;DHT22;3648;50.614;13.830;2024-03-22T14:16:34;17.20;1.00
7214;DHT22;3648;50.614;13.830;2024-03-22T14:19:02;17.20;1.00
7214;DHT22;3648;50.614;13.830;2024-03-22T14:21:27;17.20;1.00
7214;DHT22;3648;50.614;13.830;2024-03-22T14:23:54;17.20;1.00
7214;DHT22;3648;50.614;13.830;2024-03-22T14:26:22;17.20;1.00
7214;DHT22;3648;50.614;13.830;2024-03-22T14:28:50;17.10;1.00
7214;DHT22;3648;50.614;13.830;2024-03-22T14:31:16;17.10;1.00
7214;DHT22;3648;50.614;13.830;2024-03-22T14:33:43;17.00;1.00
7214;DHT22;3648;50.614;13.830;2024-03-22T14:36:09;17.00;1.00
7214;DHT22;3648;50.614;13.830;2024-03-22T14:38:38;16.90;1.00
7214;DHT22;3648;50.614;13.830;2024-03-22T14:41:04;16.80;1.00
7214;DHT22;3648;50.614;13.830;2024-03-22T14:43:32;16.80;1.00
7214;DHT22;3648;50.614;13.830;2024-03-22T14:46:00;16.70;1.00
7214;DHT22;3648;50.614;13.830;2024-03-22T14:48:28;16.70;1.00
7214;DHT22;3648;50.614;13.830;2024-03-22T14:50:54;16.60;1.00
7214;DHT22;3648;50.614;13.830;2024-03-22T14:53:21;16.60;1.00
7214;DHT22;3648;50.614;13.830;2024-03-22T14:55:54;16.60;1.00
7214;DHT22;3648;50.614;13.830;2024-03-22T14:58:24;16.50;1.00
7214;DHT22;3648;50.614;13.830;2024-03-22T15:00:55;16.30;1.00
7214;DHT22;3648;50.614;13.830;2024-03-22T15:03:22;16.20;1.00
7214;DHT22;3648;50.614;13.830;2024-03-22T15:05:49;16.20;1.00
7214;DHT22;3648;50.614;13.830;2024-03-22T15:08:17;16.10;1.00
7214;DHT22;3648;50.614;13.830;2024-03-22T15:10:43;16.00;1.00
7214;DHT22;3648;50.614;13.830;2024-03-22T15:13:11;16.00;1.00
7214;DHT22;3648;50.614;13.830;2024-03-22T15:15:37;16.00;1.00
7214;DHT22;3648;50.614;13.830;2024-03-22T15:18:06;15.80;1.00
7214;DHT22;3648;50.614;13.830;2024-03-22T15:20:33;15.80;1.00
7214;DHT22;3648;50.614;13.830;2024-03-22T15:23:00;15.80;1.00
7214;DHT22;3648;50.614;13.830;2024-03-22T15:25:26;15.70;1.00
7214;DHT22;3648;50.614;13.830;2024-03-22T15:27:53;15.60;1.00
7214;DHT22;3648;50.614;13.830;2024-03-22T15:30:19;15.60;1.00
7214;DHT22;3648;50.614;13.830;2024-03-22T15:32:47;15.50;1.00
7214;DHT22;3648;50.614;13.830;2024-03-22T15:35:14;15.50;1.00
7214;DHT22;3648;50.614;13.830;2024-03-22T15:37:41;15.50;1.00
7214;DHT22;3648;50.614;13.830;2024-03-22T15:40:08;15.40;1.00
7214;DHT22;3648;50.614;13.830;2024-03-22T15:42:35;15.40;1.00
7214;DHT22;3648;50.614;13.830;2024-03-22T15:45:03;15.40;1.00
7214;DHT22;3648;50.614;13.830;2024-03-22T15:47:31;15.40;1.00
7214;DHT22;3648;50.614;13.830;2024-03-22T15:49:59;15.30;1.00
7214;DHT22;3648;50.614;13.830;2024-03-22T15:52:26;15.30;1.00
7214;DHT22;3648;50.614;13.830;2024-03-22T15:54:54;15.30;1.00
7214;DHT22;3648;50.614;13.830;2024-03-22T15:57:20;15.30;1.00
7214;DHT22;3648;50.614;13.830;2024-03-22T15:59:47;15.30;1.00
7214;DHT22;3648;50.614;13.830;2024-03-22T16:02:13;15.30;1.00
7214;DHT22;3648;50.614;13.830;2024-03-22T16:04:40;15.20;1.00
7214;DHT22;3648;50.614;13.830;2024-03-22T16:07:06;15.20;1.00
7214;DHT22;3648;50.614;13.830;2024-03-22T16:09:37;15.20;1.00